sensor_id;sensor_type;location;lat;lon;timestamp;P1;durP1;ratioP1;P2;durP2;ratioP2
20482;SDS011;10400;53.198;6.592;2023-12-07T00:00:50;17.77;;;10.75;;
20482;SDS011;10400;53.198;6.592;2023-12-07T00:03:15;13.93;;;9.93;;
20482;SDS011;10400;53.198;6.592;2023-12-07T00:05:41;13.68;;;10.30;;
20482;SDS011;10400;53.198;6.592;2023-12-07T00:08:09;15.85;;;10.23;;
20482;SDS011;10400;53.198;6.592;2023-12-07T00:10:35;14.35;;;10.38;;
20482;SDS011;10400;53.198;6.592;2023-12-07T00:13:01;13.38;;;10.27;;
20482;SDS011;10400;53.198;6.592;2023-12-07T00:15:27;13.13;;;10.10;;
20482;SDS011;10400;53.198;6.592;2023-12-07T00:17:53;13.48;;;10.25;;
20482;SDS011;10400;53.198;6.592;2023-12-07T00:20:18;13.38;;;9.77;;
20482;SDS011;10400;53.198;6.592;2023-12-07T00:22:44;13.43;;;9.30;;
20482;SDS011;10400;53.198;6.592;2023-12-07T00:25:09;12.20;;;9.68;;
20482;SDS011;10400;53.198;6.592;2023-12-07T00:27:35;12.63;;;9.10;;
20482;SDS011;10400;53.198;6.592;2023-12-07T00:30:01;16.05;;;10.30;;
20482;SDS011;10400;53.198;6.592;2023-12-07T00:32:28;16.02;;;10.23;;
20482;SDS011;10400;53.198;6.592;2023-12-07T00:34:54;12.68;;;9.77;;
20482;SDS011;10400;53.198;6.592;2023-12-07T00:37:20;15.00;;;10.23;;
20482;SDS011;10400;53.198;6.592;2023-12-07T00:39:45;15.45;;;10.75;;
20482;SDS011;10400;53.198;6.592;2023-12-07T00:42:11;12.88;;;9.80;;
20482;SDS011;10400;53.198;6.592;2023-12-07T00:44:40;13.52;;;9.63;;
20482;SDS011;10400;53.198;6.592;2023-12-07T00:47:06;17.25;;;9.93;;
20482;SDS011;10400;53.198;6.592;2023-12-07T00:49:32;14.77;;;9.73;;
20482;SDS011;10400;53.198;6.592;2023-12-07T00:51:58;13.40;;;10.07;;
20482;SDS011;10400;53.198;6.592;2023-12-07T00:54:23;13.50;;;9.02;;
20482;SDS011;10400;53.198;6.592;2023-12-07T00:56:49;12.73;;;9.35;;
20482;SDS011;10400;53.198;6.592;2023-12-07T00:59:15;12.77;;;9.82;;
20482;SDS011;10400;53.198;6.592;2023-12-07T01:01:40;14.20;;;10.15;;
20482;SDS011;10400;53.198;6.592;2023-12-07T01:04:06;14.52;;;9.60;;
20482;SDS011;10400;53.198;6.592;2023-12-07T01:06:31;14.63;;;9.77;;
20482;SDS011;10400;53.198;6.592;2023-12-07T01:08:57;13.32;;;9.68;;
20482;SDS011;10400;53.198;6.592;2023-12-07T01:11:23;12.40;;;8.90;;
20482;SDS011;10400;53.198;6.592;2023-12-07T01:13:48;13.07;;;8.98;;
20482;SDS011;10400;53.198;6.592;2023-12-07T01:16:14;12.98;;;9.48;;
20482;SDS011;10400;53.198;6.592;2023-12-07T01:18:39;14.18;;;9.43;;
20482;SDS011;10400;53.198;6.592;2023-12-07T01:21:05;14.95;;;9.15;;
20482;SDS011;10400;53.198;6.592;2023-12-07T01:23:31;12.93;;;9.02;;
20482;SDS011;10400;53.198;6.592;2023-12-07T01:25:57;13.48;;;9.50;;
20482;SDS011;10400;53.198;6.592;2023-12-07T01:28:22;15.38;;;9.40;;
20482;SDS011;10400;53.198;6.592;2023-12-07T01:30:48;11.68;;;8.68;;
20482;SDS011;10400;53.198;6.592;2023-12-07T01:33:14;12.75;;;9.73;;
20482;SDS011;10400;53.198;6.592;2023-12-07T01:35:40;15.20;;;9.63;;
20482;SDS011;10400;53.198;6.592;2023-12-07T01:38:06;12.45;;;9.57;;
20482;SDS011;10400;53.198;6.592;2023-12-07T01:40:31;18.50;;;9.75;;
20482;SDS011;10400;53.198;6.592;2023-12-07T01:42:57;12.48;;;9.35;;
20482;SDS011;10400;53.198;6.592;2023-12-07T01:45:23;12.93;;;8.35;;
20482;SDS011;10400;53.198;6.592;2023-12-07T01:47:49;11.98;;;8.73;;
20482;SDS011;10400;53.198;6.592;2023-12-07T01:50:16;11.90;;;8.63;;
20482;SDS011;10400;53.198;6.592;2023-12-07T01:52:45;10.65;;;8.15;;
20482;SDS011;10400;53.198;6.592;2023-12-07T01:55:12;12.68;;;8.70;;
20482;SDS011;10400;53.198;6.592;2023-12-07T01:57:40;11.25;;;8.93;;
20482;SDS011;10400;53.198;6.592;2023-12-07T02:00:07;12.23;;;9.00;;
20482;SDS011;10400;53.198;6.592;2023-12-07T02:02:34;14.52;;;8.95;;
20482;SDS011;10400;53.198;6.592;2023-12-07T02:05:00;11.55;;;8.38;;
20482;SDS011;10400;53.198;6.592;2023-12-07T02:07:26;10.68;;;8.48;;
20482;SDS011;10400;53.198;6.592;2023-12-07T02:09:52;10.73;;;9.00;;
20482;SDS011;10400;53.198;6.592;2023-12-07T02:12:18;13.52;;;8.60;;
20482;SDS011;10400;53.198;6.592;2023-12-07T02:14:44;13.80;;;8.52;;
20482;SDS011;10400;53.198;6.592;2023-12-07T02:20:12;10.75;;;7.97;;
20482;SDS011;10400;53.198;6.592;2023-12-07T02:22:55;14.00;;;8.57;;
20482;SDS011;10400;53.198;6.592;2023-12-07T02:25:43;12.80;;;8.38;;
20482;SDS011;10400;53.198;6.592;2023-12-07T02:28:13;10.60;;;7.93;;
20482;SDS011;10400;53.198;6.592;2023-12-07T02:30:38;14.20;;;7.72;;
20482;SDS011;10400;53.198;6.592;2023-12-07T02:33:04;13.40;;;8.52;;
20482;SDS011;10400;53.198;6.592;2023-12-07T02:35:30;13.73;;;8.20;;
20482;SDS011;10400;53.198;6.592;2023-12-07T02:37:56;12.02;;;7.93;;
20482;SDS011;10400;53.198;6.592;2023-12-07T02:40:24;12.50;;;8.07;;
20482;SDS011;10400;53.198;6.592;2023-12-07T02:42:54;11.85;;;8.32;;
20482;SDS011;10400;53.198;6.592;2023-12-07T02:45:21;11.27;;;8.10;;
20482;SDS011;10400;53.198;6.592;2023-12-07T02:47:47;14.32;;;8.20;;
20482;SDS011;10400;53.198;6.592;2023-12-07T02:50:13;11.13;;;8.25;;
20482;SDS011;10400;53.198;6.592;2023-12-07T02:52:39;12.23;;;8.07;;
20482;SDS011;10400;53.198;6.592;2023-12-07T02:55:06;12.05;;;8.25;;
20482;SDS011;10400;53.198;6.592;2023-12-07T02:57:32;10.25;;;8.40;;
20482;SDS011;10400;53.198;6.592;2023-12-07T03:00:00;9.95;;;8.13;;
20482;SDS011;10400;53.198;6.592;2023-12-07T03:02:32;14.43;;;8.13;;
20482;SDS011;10400;53.198;6.592;2023-12-07T03:05:01;10.60;;;7.93;;
20482;SDS011;10400;53.198;6.592;2023-12-07T03:07:27;12.15;;;7.43;;
20482;SDS011;10400;53.198;6.592;2023-12-07T03:09:52;11.98;;;7.90;;
20482;SDS011;10400;53.198;6.592;2023-12-07T03:12:18;12.50;;;7.68;;
20482;SDS011;10400;53.198;6.592;2023-12-07T03:14:43;9.32;;;7.13;;
20482;SDS011;10400;53.198;6.592;2023-12-07T03:17:09;9.75;;;7.28;;
20482;SDS011;10400;53.198;6.592;2023-12-07T03:19:38;10.85;;;7.13;;
20482;SDS011;10400;53.198;6.592;2023-12-07T03:22:05;11.02;;;7.30;;
20482;SDS011;10400;53.198;6.592;2023-12-07T03:24:34;10.98;;;7.50;;
20482;SDS011;10400;53.198;6.592;2023-12-07T03:27:00;11.27;;;8.15;;
20482;SDS011;10400;53.198;6.592;2023-12-07T03:29:26;9.23;;;7.30;;
20482;SDS011;10400;53.198;6.592;2023-12-07T03:31:51;11.57;;;7.78;;
20482;SDS011;10400;53.198;6.592;2023-12-07T03:34:17;11.77;;;7.18;;
20482;SDS011;10400;53.198;6.592;2023-12-07T03:36:46;11.60;;;8.23;;
20482;SDS011;10400;53.198;6.592;2023-12-07T03:39:13;10.63;;;7.68;;
20482;SDS011;10400;53.198;6.592;2023-12-07T03:41:39;11.50;;;7.90;;
20482;SDS011;10400;53.198;6.592;2023-12-07T03:44:05;14.32;;;8.13;;
20482;SDS011;10400;53.198;6.592;2023-12-07T03:46:31;10.55;;;7.65;;
20482;SDS011;10400;53.198;6.592;2023-12-07T03:48:56;9.25;;;7.68;;
20482;SDS011;10400;53.198;6.592;2023-12-07T03:51:22;10.75;;;7.18;;
20482;SDS011;10400;53.198;6.592;2023-12-07T03:53:48;10.50;;;7.40;;
20482;SDS011;10400;53.198;6.592;2023-12-07T03:56:26;9.70;;;7.40;;
20482;SDS011;10400;53.198;6.592;2023-12-07T03:58:53;14.15;;;8.02;;
20482;SDS011;10400;53.198;6.592;2023-12-07T04:01:22;10.70;;;7.95;;
20482;SDS011;10400;53.198;6.592;2023-12-07T04:03:49;9.95;;;7.70;;
20482;SDS011;10400;53.198;6.592;2023-12-07T04:06:15;9.93;;;7.07;;
20482;SDS011;10400;53.198;6.592;2023-12-07T04:08:41;11.68;;;7.15;;
20482;SDS011;10400;53.198;6.592;2023-12-07T04:11:07;11.13;;;7.85;;
20482;SDS011;10400;53.198;6.592;2023-12-07T04:13:33;10.77;;;7.43;;
20482;SDS011;10400;53.198;6.592;2023-12-07T04:15:58;9.60;;;6.90;;
20482;SDS011;10400;53.198;6.592;2023-12-07T04:18:24;8.93;;;7.18;;
20482;SDS011;10400;53.198;6.592;2023-12-07T04:20:50;9.70;;;7.40;;
20482;SDS011;10400;53.198;6.592;2023-12-07T04:23:15;11.45;;;6.78;;
20482;SDS011;10400;53.198;6.592;2023-12-07T04:25:41;11.68;;;7.63;;
20482;SDS011;10400;53.198;6.592;2023-12-07T04:28:07;10.20;;;7.30;;
20482;SDS011;10400;53.198;6.592;2023-12-07T04:30:32;9.73;;;7.05;;
20482;SDS011;10400;53.198;6.592;2023-12-07T04:32:58;11.70;;;7.68;;
20482;SDS011;10400;53.198;6.592;2023-12-07T04:35:23;15.18;;;7.60;;
20482;SDS011;10400;53.198;6.592;2023-12-07T04:37:49;9.68;;;7.40;;
20482;SDS011;10400;53.198;6.592;2023-12-07T04:40:15;12.15;;;7.35;;
20482;SDS011;10400;53.198;6.592;2023-12-07T04:42:40;11.75;;;7.63;;
20482;SDS011;10400;53.198;6.592;2023-12-07T04:45:06;10.70;;;7.60;;
20482;SDS011;10400;53.198;6.592;2023-12-07T04:47:32;11.23;;;7.35;;
20482;SDS011;10400;53.198;6.592;2023-12-07T04:49:58;12.95;;;8.20;;
20482;SDS011;10400;53.198;6.592;2023-12-07T04:52:24;9.77;;;7.10;;
20482;SDS011;10400;53.198;6.592;2023-12-07T04:54:50;10.73;;;7.47;;
20482;SDS011;10400;53.198;6.592;2023-12-07T04:57:15;9.95;;;7.38;;
20482;SDS011;10400;53.198;6.592;2023-12-07T04:59:41;12.45;;;7.65;;
20482;SDS011;10400;53.198;6.592;2023-12-07T05:02:11;10.65;;;7.32;;
20482;SDS011;10400;53.198;6.592;2023-12-07T05:04:40;14.18;;;7.68;;
20482;SDS011;10400;53.198;6.592;2023-12-07T05:07:06;12.85;;;7.40;;
20482;SDS011;10400;53.198;6.592;2023-12-07T05:09:32;11.80;;;8.13;;
20482;SDS011;10400;53.198;6.592;2023-12-07T05:11:58;11.25;;;8.00;;
20482;SDS011;10400;53.198;6.592;2023-12-07T05:14:23;12.65;;;8.20;;
20482;SDS011;10400;53.198;6.592;2023-12-07T05:16:49;12.67;;;8.50;;
20482;SDS011;10400;53.198;6.592;2023-12-07T05:19:22;12.63;;;7.85;;
20482;SDS011;10400;53.198;6.592;2023-12-07T05:21:48;12.85;;;8.63;;
20482;SDS011;10400;53.198;6.592;2023-12-07T05:24:14;13.70;;;8.40;;
20482;SDS011;10400;53.198;6.592;2023-12-07T05:26:41;13.48;;;8.13;;
20482;SDS011;10400;53.198;6.592;2023-12-07T05:29:07;13.40;;;9.00;;
20482;SDS011;10400;53.198;6.592;2023-12-07T05:31:33;12.85;;;8.93;;
20482;SDS011;10400;53.198;6.592;2023-12-07T05:33:58;12.60;;;9.20;;
20482;SDS011;10400;53.198;6.592;2023-12-07T05:36:24;15.93;;;9.52;;
20482;SDS011;10400;53.198;6.592;2023-12-07T05:38:51;11.93;;;8.77;;
20482;SDS011;10400;53.198;6.592;2023-12-07T05:41:16;14.70;;;9.55;;
20482;SDS011;10400;53.198;6.592;2023-12-07T05:43:42;17.65;;;10.32;;
20482;SDS011;10400;53.198;6.592;2023-12-07T05:46:08;11.65;;;8.45;;
20482;SDS011;10400;53.198;6.592;2023-12-07T05:48:34;14.57;;;9.30;;
20482;SDS011;10400;53.198;6.592;2023-12-07T05:51:01;16.88;;;9.80;;
20482;SDS011;10400;53.198;6.592;2023-12-07T05:53:27;15.82;;;9.50;;
20482;SDS011;10400;53.198;6.592;2023-12-07T05:55:53;16.40;;;9.82;;
20482;SDS011;10400;53.198;6.592;2023-12-07T05:58:19;15.38;;;9.82;;
20482;SDS011;10400;53.198;6.592;2023-12-07T06:00:45;17.02;;;10.82;;
20482;SDS011;10400;53.198;6.592;2023-12-07T06:03:12;15.65;;;10.65;;
20482;SDS011;10400;53.198;6.592;2023-12-07T06:05:38;16.25;;;10.82;;
20482;SDS011;10400;53.198;6.592;2023-12-07T06:08:04;14.93;;;10.60;;
20482;SDS011;10400;53.198;6.592;2023-12-07T06:10:30;18.70;;;10.68;;
20482;SDS011;10400;53.198;6.592;2023-12-07T06:12:56;15.93;;;10.75;;
20482;SDS011;10400;53.198;6.592;2023-12-07T06:15:23;15.93;;;11.07;;
20482;SDS011;10400;53.198;6.592;2023-12-07T06:17:49;16.73;;;11.82;;
20482;SDS011;10400;53.198;6.592;2023-12-07T06:20:14;16.10;;;10.95;;
20482;SDS011;10400;53.198;6.592;2023-12-07T06:22:40;14.65;;;10.38;;
20482;SDS011;10400;53.198;6.592;2023-12-07T06:25:06;14.68;;;10.10;;
20482;SDS011;10400;53.198;6.592;2023-12-07T06:27:33;15.13;;;10.68;;
20482;SDS011;10400;53.198;6.592;2023-12-07T06:30:03;15.38;;;10.57;;
20482;SDS011;10400;53.198;6.592;2023-12-07T06:32:30;17.47;;;10.87;;
20482;SDS011;10400;53.198;6.592;2023-12-07T06:34:57;18.80;;;11.20;;
20482;SDS011;10400;53.198;6.592;2023-12-07T06:37:23;18.25;;;11.38;;
20482;SDS011;10400;53.198;6.592;2023-12-07T06:39:48;13.73;;;9.82;;
20482;SDS011;10400;53.198;6.592;2023-12-07T06:42:14;13.85;;;10.18;;
20482;SDS011;10400;53.198;6.592;2023-12-07T06:44:40;15.02;;;9.90;;
20482;SDS011;10400;53.198;6.592;2023-12-07T06:47:08;15.75;;;10.27;;
20482;SDS011;10400;53.198;6.592;2023-12-07T06:49:34;15.52;;;10.18;;
20482;SDS011;10400;53.198;6.592;2023-12-07T06:52:01;17.08;;;10.60;;
20482;SDS011;10400;53.198;6.592;2023-12-07T06:54:26;15.40;;;10.27;;
20482;SDS011;10400;53.198;6.592;2023-12-07T06:56:52;15.55;;;10.43;;
20482;SDS011;10400;53.198;6.592;2023-12-07T06:59:18;16.45;;;9.90;;
20482;SDS011;10400;53.198;6.592;2023-12-07T07:01:45;14.55;;;10.45;;
20482;SDS011;10400;53.198;6.592;2023-12-07T07:04:11;15.43;;;10.30;;
20482;SDS011;10400;53.198;6.592;2023-12-07T07:06:36;13.85;;;9.77;;
20482;SDS011;10400;53.198;6.592;2023-12-07T07:09:03;16.35;;;11.02;;
20482;SDS011;10400;53.198;6.592;2023-12-07T07:11:30;15.38;;;10.65;;
20482;SDS011;10400;53.198;6.592;2023-12-07T07:13:55;12.32;;;9.43;;
20482;SDS011;10400;53.198;6.592;2023-12-07T07:16:21;13.85;;;9.93;;
20482;SDS011;10400;53.198;6.592;2023-12-07T07:18:47;14.35;;;9.93;;
20482;SDS011;10400;53.198;6.592;2023-12-07T07:21:12;15.85;;;10.40;;
20482;SDS011;10400;53.198;6.592;2023-12-07T07:23:38;17.10;;;10.15;;
20482;SDS011;10400;53.198;6.592;2023-12-07T07:26:03;16.60;;;10.18;;
20482;SDS011;10400;53.198;6.592;2023-12-07T07:28:29;16.63;;;10.75;;
20482;SDS011;10400;53.198;6.592;2023-12-07T07:30:55;17.13;;;10.23;;
20482;SDS011;10400;53.198;6.592;2023-12-07T07:33:20;15.45;;;10.50;;
20482;SDS011;10400;53.198;6.592;2023-12-07T07:35:46;15.25;;;11.15;;
20482;SDS011;10400;53.198;6.592;2023-12-07T07:38:12;18.33;;;10.25;;
20482;SDS011;10400;53.198;6.592;2023-12-07T07:40:39;15.02;;;10.23;;
20482;SDS011;10400;53.198;6.592;2023-12-07T07:43:05;15.63;;;10.10;;
20482;SDS011;10400;53.198;6.592;2023-12-07T07:45:30;18.02;;;11.45;;
20482;SDS011;10400;53.198;6.592;2023-12-07T07:47:56;16.90;;;10.75;;
20482;SDS011;10400;53.198;6.592;2023-12-07T07:50:22;18.27;;;11.68;;
20482;SDS011;10400;53.198;6.592;2023-12-07T07:52:47;18.25;;;11.30;;
20482;SDS011;10400;53.198;6.592;2023-12-07T07:55:13;17.77;;;10.93;;
20482;SDS011;10400;53.198;6.592;2023-12-07T07:57:39;17.13;;;11.55;;
20482;SDS011;10400;53.198;6.592;2023-12-07T08:00:04;20.77;;;11.73;;
20482;SDS011;10400;53.198;6.592;2023-12-07T08:02:33;18.52;;;10.93;;
20482;SDS011;10400;53.198;6.592;2023-12-07T08:04:59;18.17;;;11.90;;
20482;SDS011;10400;53.198;6.592;2023-12-07T08:07:24;19.50;;;11.88;;
20482;SDS011;10400;53.198;6.592;2023-12-07T08:09:50;18.60;;;11.80;;
20482;SDS011;10400;53.198;6.592;2023-12-07T08:12:16;18.90;;;11.60;;
20482;SDS011;10400;53.198;6.592;2023-12-07T08:14:41;20.73;;;12.52;;
20482;SDS011;10400;53.198;6.592;2023-12-07T08:17:08;18.15;;;11.77;;
20482;SDS011;10400;53.198;6.592;2023-12-07T08:19:35;22.83;;;12.30;;
20482;SDS011;10400;53.198;6.592;2023-12-07T08:22:01;18.23;;;11.38;;
20482;SDS011;10400;53.198;6.592;2023-12-07T08:24:27;20.67;;;12.23;;
20482;SDS011;10400;53.198;6.592;2023-12-07T08:26:52;18.95;;;11.38;;
20482;SDS011;10400;53.198;6.592;2023-12-07T08:29:18;17.67;;;11.93;;
20482;SDS011;10400;53.198;6.592;2023-12-07T08:31:44;20.85;;;13.40;;
20482;SDS011;10400;53.198;6.592;2023-12-07T08:34:09;21.90;;;12.85;;
20482;SDS011;10400;53.198;6.592;2023-12-07T08:36:35;21.90;;;12.55;;
20482;SDS011;10400;53.198;6.592;2023-12-07T08:39:01;22.00;;;12.68;;
20482;SDS011;10400;53.198;6.592;2023-12-07T08:41:26;22.58;;;13.10;;
20482;SDS011;10400;53.198;6.592;2023-12-07T08:43:52;22.88;;;13.32;;
20482;SDS011;10400;53.198;6.592;2023-12-07T08:46:18;23.88;;;13.25;;
20482;SDS011;10400;53.198;6.592;2023-12-07T08:48:43;20.67;;;13.57;;
20482;SDS011;10400;53.198;6.592;2023-12-07T08:51:09;21.15;;;13.68;;
20482;SDS011;10400;53.198;6.592;2023-12-07T08:53:35;23.05;;;13.82;;
20482;SDS011;10400;53.198;6.592;2023-12-07T08:56:01;20.13;;;13.40;;
20482;SDS011;10400;53.198;6.592;2023-12-07T08:58:27;19.10;;;12.07;;
20482;SDS011;10400;53.198;6.592;2023-12-07T09:00:53;19.90;;;12.55;;
20482;SDS011;10400;53.198;6.592;2023-12-07T09:03:18;21.75;;;12.55;;
20482;SDS011;10400;53.198;6.592;2023-12-07T09:05:44;20.98;;;14.05;;
20482;SDS011;10400;53.198;6.592;2023-12-07T09:08:10;22.02;;;13.18;;
20482;SDS011;10400;53.198;6.592;2023-12-07T09:10:35;21.27;;;12.68;;
20482;SDS011;10400;53.198;6.592;2023-12-07T09:13:01;19.23;;;12.63;;
20482;SDS011;10400;53.198;6.592;2023-12-07T09:15:27;19.88;;;12.50;;
20482;SDS011;10400;53.198;6.592;2023-12-07T09:17:53;23.85;;;14.27;;
20482;SDS011;10400;53.198;6.592;2023-12-07T09:20:19;25.92;;;13.50;;
20482;SDS011;10400;53.198;6.592;2023-12-07T09:22:45;24.10;;;14.95;;
20482;SDS011;10400;53.198;6.592;2023-12-07T09:25:12;22.90;;;14.55;;
20482;SDS011;10400;53.198;6.592;2023-12-07T09:27:38;23.48;;;14.68;;
20482;SDS011;10400;53.198;6.592;2023-12-07T09:30:05;26.52;;;15.25;;
20482;SDS011;10400;53.198;6.592;2023-12-07T09:32:32;27.40;;;16.60;;
20482;SDS011;10400;53.198;6.592;2023-12-07T09:35:03;31.35;;;16.58;;
20482;SDS011;10400;53.198;6.592;2023-12-07T09:37:31;25.77;;;15.13;;
20482;SDS011;10400;53.198;6.592;2023-12-07T09:39:57;29.60;;;17.27;;
20482;SDS011;10400;53.198;6.592;2023-12-07T09:42:23;27.00;;;15.60;;
20482;SDS011;10400;53.198;6.592;2023-12-07T09:44:49;27.00;;;17.20;;
20482;SDS011;10400;53.198;6.592;2023-12-07T09:47:15;30.58;;;18.10;;
20482;SDS011;10400;53.198;6.592;2023-12-07T09:49:41;32.75;;;18.08;;
20482;SDS011;10400;53.198;6.592;2023-12-07T09:52:07;27.65;;;17.73;;
20482;SDS011;10400;53.198;6.592;2023-12-07T09:54:33;31.38;;;18.15;;
20482;SDS011;10400;53.198;6.592;2023-12-07T09:57:00;26.98;;;17.17;;
20482;SDS011;10400;53.198;6.592;2023-12-07T09:59:26;31.98;;;18.48;;
20482;SDS011;10400;53.198;6.592;2023-12-07T10:01:52;29.25;;;17.48;;
20482;SDS011;10400;53.198;6.592;2023-12-07T10:04:21;31.98;;;17.75;;
20482;SDS011;10400;53.198;6.592;2023-12-07T10:06:49;28.70;;;17.00;;
20482;SDS011;10400;53.198;6.592;2023-12-07T10:09:15;22.85;;;16.33;;
20482;SDS011;10400;53.198;6.592;2023-12-07T10:11:41;28.80;;;17.08;;
20482;SDS011;10400;53.198;6.592;2023-12-07T10:14:09;27.17;;;16.48;;
20482;SDS011;10400;53.198;6.592;2023-12-07T10:16:35;25.88;;;16.95;;
20482;SDS011;10400;53.198;6.592;2023-12-07T10:19:14;26.77;;;17.27;;
20482;SDS011;10400;53.198;6.592;2023-12-07T10:21:46;24.95;;;15.80;;
20482;SDS011;10400;53.198;6.592;2023-12-07T10:24:25;27.23;;;16.23;;
20482;SDS011;10400;53.198;6.592;2023-12-07T10:26:51;27.60;;;16.40;;
20482;SDS011;10400;53.198;6.592;2023-12-07T10:29:18;25.05;;;15.40;;
20482;SDS011;10400;53.198;6.592;2023-12-07T10:31:48;25.13;;;15.63;;
20482;SDS011;10400;53.198;6.592;2023-12-07T10:34:15;28.40;;;15.18;;
20482;SDS011;10400;53.198;6.592;2023-12-07T10:36:44;24.00;;;15.02;;
20482;SDS011;10400;53.198;6.592;2023-12-07T10:39:11;22.20;;;15.13;;
20482;SDS011;10400;53.198;6.592;2023-12-07T10:41:37;22.88;;;14.75;;
20482;SDS011;10400;53.198;6.592;2023-12-07T10:44:04;27.17;;;14.70;;
20482;SDS011;10400;53.198;6.592;2023-12-07T10:46:32;22.48;;;14.43;;
20482;SDS011;10400;53.198;6.592;2023-12-07T10:49:00;23.92;;;15.25;;
20482;SDS011;10400;53.198;6.592;2023-12-07T10:51:37;20.88;;;13.88;;
20482;SDS011;10400;53.198;6.592;2023-12-07T10:54:05;26.15;;;14.57;;
20482;SDS011;10400;53.198;6.592;2023-12-07T10:56:40;24.33;;;15.82;;
20482;SDS011;10400;53.198;6.592;2023-12-07T10:59:09;26.30;;;14.85;;
20482;SDS011;10400;53.198;6.592;2023-12-07T11:01:38;23.65;;;15.43;;
20482;SDS011;10400;53.198;6.592;2023-12-07T11:04:05;23.13;;;14.35;;
20482;SDS011;10400;53.198;6.592;2023-12-07T11:06:31;20.85;;;13.90;;
20482;SDS011;10400;53.198;6.592;2023-12-07T11:09:01;25.90;;;14.35;;
20482;SDS011;10400;53.198;6.592;2023-12-07T11:14:13;22.00;;;13.38;;
20482;SDS011;10400;53.198;6.592;2023-12-07T11:16:40;22.35;;;13.05;;
20482;SDS011;10400;53.198;6.592;2023-12-07T11:21:57;23.52;;;13.55;;
20482;SDS011;10400;53.198;6.592;2023-12-07T11:24:23;19.83;;;12.68;;
20482;SDS011;10400;53.198;6.592;2023-12-07T11:26:51;21.92;;;12.52;;
20482;SDS011;10400;53.198;6.592;2023-12-07T11:29:19;23.88;;;12.90;;
20482;SDS011;10400;53.198;6.592;2023-12-07T11:31:46;17.90;;;12.20;;
20482;SDS011;10400;53.198;6.592;2023-12-07T11:34:13;21.23;;;12.38;;
20482;SDS011;10400;53.198;6.592;2023-12-07T11:36:54;17.80;;;12.27;;
20482;SDS011;10400;53.198;6.592;2023-12-07T11:39:21;21.42;;;13.50;;
20482;SDS011;10400;53.198;6.592;2023-12-07T11:41:51;19.52;;;12.85;;
20482;SDS011;10400;53.198;6.592;2023-12-07T11:44:19;20.63;;;12.68;;
20482;SDS011;10400;53.198;6.592;2023-12-07T11:46:49;18.33;;;12.30;;
20482;SDS011;10400;53.198;6.592;2023-12-07T11:49:14;18.73;;;12.35;;
20482;SDS011;10400;53.198;6.592;2023-12-07T11:51:41;22.65;;;13.48;;
20482;SDS011;10400;53.198;6.592;2023-12-07T11:54:07;22.38;;;13.02;;
20482;SDS011;10400;53.198;6.592;2023-12-07T11:56:36;19.33;;;12.73;;
20482;SDS011;10400;53.198;6.592;2023-12-07T11:59:02;21.38;;;13.52;;
20482;SDS011;10400;53.198;6.592;2023-12-07T12:01:28;17.92;;;11.93;;
20482;SDS011;10400;53.198;6.592;2023-12-07T12:03:55;21.05;;;12.65;;
20482;SDS011;10400;53.198;6.592;2023-12-07T12:06:21;23.02;;;14.10;;
20482;SDS011;10400;53.198;6.592;2023-12-07T12:08:48;20.33;;;12.40;;
20482;SDS011;10400;53.198;6.592;2023-12-07T12:11:14;19.20;;;12.77;;
20482;SDS011;10400;53.198;6.592;2023-12-07T12:13:40;21.30;;;13.88;;
20482;SDS011;10400;53.198;6.592;2023-12-07T12:16:06;17.75;;;12.48;;
20482;SDS011;10400;53.198;6.592;2023-12-07T12:18:32;18.95;;;12.25;;
20482;SDS011;10400;53.198;6.592;2023-12-07T12:20:58;20.50;;;13.43;;
20482;SDS011;10400;53.198;6.592;2023-12-07T12:23:24;20.08;;;13.18;;
20482;SDS011;10400;53.198;6.592;2023-12-07T12:25:49;19.85;;;13.13;;
20482;SDS011;10400;53.198;6.592;2023-12-07T12:28:16;19.58;;;13.93;;
20482;SDS011;10400;53.198;6.592;2023-12-07T12:30:46;17.77;;;12.75;;
20482;SDS011;10400;53.198;6.592;2023-12-07T12:33:12;19.98;;;12.98;;
20482;SDS011;10400;53.198;6.592;2023-12-07T12:35:38;21.98;;;12.98;;
20482;SDS011;10400;53.198;6.592;2023-12-07T12:38:03;22.83;;;14.20;;
20482;SDS011;10400;53.198;6.592;2023-12-07T12:40:35;23.52;;;14.93;;
20482;SDS011;10400;53.198;6.592;2023-12-07T12:43:00;26.40;;;17.33;;
20482;SDS011;10400;53.198;6.592;2023-12-07T12:45:26;26.27;;;17.88;;
20482;SDS011;10400;53.198;6.592;2023-12-07T12:47:52;25.35;;;16.73;;
20482;SDS011;10400;53.198;6.592;2023-12-07T12:50:35;26.48;;;17.83;;
20482;SDS011;10400;53.198;6.592;2023-12-07T12:53:06;27.77;;;16.75;;
20482;SDS011;10400;53.198;6.592;2023-12-07T12:55:34;26.33;;;16.52;;
20482;SDS011;10400;53.198;6.592;2023-12-07T12:58:01;28.80;;;17.77;;
20482;SDS011;10400;53.198;6.592;2023-12-07T13:00:29;30.35;;;17.27;;
20482;SDS011;10400;53.198;6.592;2023-12-07T13:02:56;30.00;;;17.92;;
20482;SDS011;10400;53.198;6.592;2023-12-07T13:05:21;26.90;;;15.98;;
20482;SDS011;10400;53.198;6.592;2023-12-07T13:07:48;28.13;;;15.90;;
20482;SDS011;10400;53.198;6.592;2023-12-07T13:10:16;24.90;;;15.73;;
20482;SDS011;10400;53.198;6.592;2023-12-07T13:12:42;28.05;;;17.17;;
20482;SDS011;10400;53.198;6.592;2023-12-07T13:15:11;27.55;;;17.60;;
20482;SDS011;10400;53.198;6.592;2023-12-07T13:17:37;28.30;;;17.13;;
20482;SDS011;10400;53.198;6.592;2023-12-07T13:20:04;27.27;;;16.50;;
20482;SDS011;10400;53.198;6.592;2023-12-07T13:22:33;27.17;;;17.45;;
20482;SDS011;10400;53.198;6.592;2023-12-07T13:24:59;27.08;;;16.17;;
20482;SDS011;10400;53.198;6.592;2023-12-07T13:27:24;27.13;;;16.60;;
20482;SDS011;10400;53.198;6.592;2023-12-07T13:29:50;26.08;;;15.93;;
20482;SDS011;10400;53.198;6.592;2023-12-07T13:32:15;29.90;;;17.10;;
20482;SDS011;10400;53.198;6.592;2023-12-07T13:34:41;27.33;;;15.82;;
20482;SDS011;10400;53.198;6.592;2023-12-07T13:37:07;30.08;;;17.17;;
20482;SDS011;10400;53.198;6.592;2023-12-07T13:39:33;27.52;;;16.50;;
20482;SDS011;10400;53.198;6.592;2023-12-07T13:41:59;28.30;;;17.43;;
20482;SDS011;10400;53.198;6.592;2023-12-07T13:44:25;29.20;;;16.87;;
20482;SDS011;10400;53.198;6.592;2023-12-07T13:46:51;26.10;;;17.20;;
20482;SDS011;10400;53.198;6.592;2023-12-07T13:49:18;30.53;;;17.80;;
20482;SDS011;10400;53.198;6.592;2023-12-07T13:51:45;29.95;;;17.90;;
20482;SDS011;10400;53.198;6.592;2023-12-07T13:54:11;29.03;;;18.03;;
20482;SDS011;10400;53.198;6.592;2023-12-07T13:56:37;27.90;;;17.15;;
20482;SDS011;10400;53.198;6.592;2023-12-07T13:59:03;30.00;;;18.17;;
20482;SDS011;10400;53.198;6.592;2023-12-07T14:01:29;33.07;;;18.63;;
20482;SDS011;10400;53.198;6.592;2023-12-07T14:03:56;34.63;;;18.95;;
20482;SDS011;10400;53.198;6.592;2023-12-07T14:06:23;31.77;;;19.03;;
20482;SDS011;10400;53.198;6.592;2023-12-07T14:08:49;33.60;;;18.50;;
20482;SDS011;10400;53.198;6.592;2023-12-07T14:11:15;35.55;;;19.35;;
20482;SDS011;10400;53.198;6.592;2023-12-07T14:13:41;34.95;;;19.05;;
20482;SDS011;10400;53.198;6.592;2023-12-07T14:16:08;33.57;;;18.70;;
20482;SDS011;10400;53.198;6.592;2023-12-07T14:18:34;34.40;;;19.70;;
20482;SDS011;10400;53.198;6.592;2023-12-07T14:20:59;35.20;;;19.35;;
20482;SDS011;10400;53.198;6.592;2023-12-07T14:23:25;33.80;;;19.02;;
20482;SDS011;10400;53.198;6.592;2023-12-07T14:25:51;38.20;;;19.35;;
20482;SDS011;10400;53.198;6.592;2023-12-07T14:28:17;42.57;;;19.97;;
20482;SDS011;10400;53.198;6.592;2023-12-07T14:30:43;36.97;;;19.37;;